Aviation Digital Data Service (ADDS)

Output produced by METARs form (0410 UTC 26 June 2019)
found at http://www.aviationweather.gov/metar/data/
 
METAR text: RCMQ 260400Z 20013KT 9999 FEW012 SCT030 BKN060 30/23 Q1006 NOSIG RMK A2970
Conditions at: RCMQ (WUCHIA OBSERVATO, TW) observed 0400 UTC 26 June 2019
Temperature: 30.0°C (86°F)
Dewpoint: 23.0°C (73°F) [RH = 66%]
Pressure (altimeter): 29.70 inches Hg (1006.0 mb)
Winds: from the SSW (200 degrees) at 15 MPH (13 knots; 6.7 m/s)
Visibility: 6 or more miles (10+ km)
Ceiling: 6000 feet AGL
Clouds: few clouds at 1200 feet AGL
scattered clouds at 3000 feet AGL
broken clouds at 6000 feet AGL
Weather: no significant weather observed at this time

METAR text: RCMQ 260330Z 20013KT 8000 VCSH FEW010 SCT020 BKN050 28/23 Q1006 NOSIG RMK A2971 VCSH SE
Conditions at: RCMQ (WUCHIA OBSERVATO, TW) observed 0330 UTC 26 June 2019
Temperature: 28.0°C (82°F)
Dewpoint: 23.0°C (73°F) [RH = 74%]
Pressure (altimeter): 29.70 inches Hg (1006.0 mb)
Winds: from the SSW (200 degrees) at 15 MPH (13 knots; 6.7 m/s)
Visibility: 5 miles ( 8 km)
Ceiling: 5000 feet AGL
Clouds: few clouds at 1000 feet AGL
scattered clouds at 2000 feet AGL
broken clouds at 5000 feet AGL
Weather: VCSH  (showers in vicinity)

METAR text: RCMQ 260319Z 21013KT 8000 VCSH FEW010 SCT020 BKN050 28/23 Q1006 NOSIG RMK A2972 VCSH SE
Conditions at: RCMQ (WUCHIA OBSERVATO, TW) observed 0319 UTC 26 June 2019
Temperature: 28.0°C (82°F)
Dewpoint: 23.0°C (73°F) [RH = 74%]
Pressure (altimeter): 29.70 inches Hg (1006.0 mb)
Winds: from the SSW (210 degrees) at 15 MPH (13 knots; 6.7 m/s)
Visibility: 5 miles ( 8 km)
Ceiling: 5000 feet AGL
Clouds: few clouds at 1000 feet AGL
scattered clouds at 2000 feet AGL
broken clouds at 5000 feet AGL
Weather: VCSH  (showers in vicinity)

METAR text: RCMQ 260300Z 22011KT 8000 -RA FEW010 SCT020 BKN050 27/24 Q1006 NOSIG RMK A2972
Conditions at: RCMQ (WUCHIA OBSERVATO, TW) observed 0300 UTC 26 June 2019
Temperature: 27.0°C (81°F)
Dewpoint: 24.0°C (75°F) [RH = 84%]
Pressure (altimeter): 29.70 inches Hg (1006.0 mb)
Winds: from the SW (220 degrees) at 13 MPH (11 knots; 5.7 m/s)
Visibility: 5 miles ( 8 km)
Ceiling: 5000 feet AGL
Clouds: few clouds at 1000 feet AGL
scattered clouds at 2000 feet AGL
broken clouds at 5000 feet AGL
Weather: -RA  (light rain)

METAR text: RCMQ 260230Z 22010KT 8000 -RA FEW010 SCT020 BKN050 26/23 Q1007 NOSIG RMK A2974
Conditions at: RCMQ (WUCHIA OBSERVATO, TW) observed 0230 UTC 26 June 2019
Temperature: 26.0°C (79°F)
Dewpoint: 23.0°C (73°F) [RH = 84%]
Pressure (altimeter): 29.73 inches Hg (1007.0 mb)
Winds: from the SW (220 degrees) at 12 MPH (10 knots; 5.1 m/s)
Visibility: 5 miles ( 8 km)
Ceiling: 5000 feet AGL
Clouds: few clouds at 1000 feet AGL
scattered clouds at 2000 feet AGL
broken clouds at 5000 feet AGL
Weather: -RA  (light rain)

METAR text: RCMQ 260200Z 23010KT 8000 -RA FEW010 SCT020 BKN050 26/23 Q1007 NOSIG RMK A2974 RA AMT 0.5MM
Conditions at: RCMQ (WUCHIA OBSERVATO, TW) observed 0200 UTC 26 June 2019
Temperature: 26.0°C (79°F)
Dewpoint: 23.0°C (73°F) [RH = 84%]
Pressure (altimeter): 29.73 inches Hg (1007.0 mb)
Winds: from the SW (230 degrees) at 12 MPH (10 knots; 5.1 m/s)
Visibility: 5 miles ( 8 km)
Ceiling: 5000 feet AGL
Clouds: few clouds at 1000 feet AGL
scattered clouds at 2000 feet AGL
broken clouds at 5000 feet AGL
Weather: -RA  (light rain)

METAR text: RCMQ 260140Z 23010KT 9000 -RA FEW010 SCT030 BKN060 28/22 Q1006 NOSIG RMK A2973
Conditions at: RCMQ (WUCHIA OBSERVATO, TW) observed 0140 UTC 26 June 2019
Temperature: 28.0°C (82°F)
Dewpoint: 22.0°C (72°F) [RH = 70%]
Pressure (altimeter): 29.70 inches Hg (1006.0 mb)
Winds: from the SW (230 degrees) at 12 MPH (10 knots; 5.1 m/s)
Visibility: 6 miles ( 9 km)
Ceiling: 6000 feet AGL
Clouds: few clouds at 1000 feet AGL
scattered clouds at 3000 feet AGL
broken clouds at 6000 feet AGL
Weather: -RA  (light rain)

METAR text: RCMQ 260130Z 22009KT 9999 VCSH FEW010 SCT030 BKN060 29/22 Q1006 NOSIG RMK A2973 VCSH W
Conditions at: RCMQ (WUCHIA OBSERVATO, TW) observed 0130 UTC 26 June 2019
Temperature: 29.0°C (84°F)
Dewpoint: 22.0°C (72°F) [RH = 66%]
Pressure (altimeter): 29.70 inches Hg (1006.0 mb)
Winds: from the SW (220 degrees) at 10 MPH (9 knots; 4.6 m/s)
Visibility: 6 or more miles (10+ km)
Ceiling: 6000 feet AGL
Clouds: few clouds at 1000 feet AGL
scattered clouds at 3000 feet AGL
broken clouds at 6000 feet AGL
Weather: VCSH  (showers in vicinity)

METAR text: RCMQ 260100Z 21006KT 9999 VCSH FEW010 SCT030 BKN060 29/22 Q1006 NOSIG RMK A2973 VCSH W
Conditions at: RCMQ (WUCHIA OBSERVATO, TW) observed 0100 UTC 26 June 2019
Temperature: 29.0°C (84°F)
Dewpoint: 22.0°C (72°F) [RH = 66%]
Pressure (altimeter): 29.70 inches Hg (1006.0 mb)
Winds: from the SSW (210 degrees) at 7 MPH (6 knots; 3.1 m/s)
Visibility: 6 or more miles (10+ km)
Ceiling: 6000 feet AGL
Clouds: few clouds at 1000 feet AGL
scattered clouds at 3000 feet AGL
broken clouds at 6000 feet AGL
Weather: VCSH  (showers in vicinity)

METAR text: RCMQ 260030Z 19006KT 9999 FEW010 SCT030 BKN060 29/22 Q1006 NOSIG RMK A2973
Conditions at: RCMQ (WUCHIA OBSERVATO, TW) observed 0030 UTC 26 June 2019
Temperature: 29.0°C (84°F)
Dewpoint: 22.0°C (72°F) [RH = 66%]
Pressure (altimeter): 29.70 inches Hg (1006.0 mb)
Winds: from the S (190 degrees) at 7 MPH (6 knots; 3.1 m/s)
Visibility: 6 or more miles (10+ km)
Ceiling: 6000 feet AGL
Clouds: few clouds at 1000 feet AGL
scattered clouds at 3000 feet AGL
broken clouds at 6000 feet AGL
Weather: no significant weather observed at this time

METAR text: RCMQ 260000Z 19005KT 9999 FEW010 SCT030 BKN060 28/22 Q1006 NOSIG RMK A2971
Conditions at: RCMQ (WUCHIA OBSERVATO, TW) observed 0000 UTC 26 June 2019
Temperature: 28.0°C (82°F)
Dewpoint: 22.0°C (72°F) [RH = 70%]
Pressure (altimeter): 29.70 inches Hg (1006.0 mb)
Winds: from the S (190 degrees) at 6 MPH (5 knots; 2.6 m/s)
Visibility: 6 or more miles (10+ km)
Ceiling: 6000 feet AGL
Clouds: few clouds at 1000 feet AGL
scattered clouds at 3000 feet AGL
broken clouds at 6000 feet AGL
Weather: no significant weather observed at this time

METAR text: RCMQ 252300Z 17002KT 9999 FEW010 SCT030 BKN060 25/22 Q1006 NOSIG RMK A2972
Conditions at: RCMQ (WUCHIA OBSERVATO, TW) observed 2300 UTC 25 June 2019
Temperature: 25.0°C (77°F)
Dewpoint: 22.0°C (72°F) [RH = 83%]
Pressure (altimeter): 29.70 inches Hg (1006.0 mb)
Winds: from the S (170 degrees) at 2 MPH (2 knots; 1.0 m/s)
Visibility: 6 or more miles (10+ km)
Ceiling: 6000 feet AGL
Clouds: few clouds at 1000 feet AGL
scattered clouds at 3000 feet AGL
broken clouds at 6000 feet AGL
Weather: no significant weather observed at this time

METAR text: RCMQ 252230Z 19002KT 9999 FEW010 SCT030 BKN060 25/22 Q1006 NOSIG RMK A2972
Conditions at: RCMQ (WUCHIA OBSERVATO, TW) observed 2230 UTC 25 June 2019
Temperature: 25.0°C (77°F)
Dewpoint: 22.0°C (72°F) [RH = 83%]
Pressure (altimeter): 29.70 inches Hg (1006.0 mb)
Winds: from the S (190 degrees) at 2 MPH (2 knots; 1.0 m/s)
Visibility: 6 or more miles (10+ km)
Ceiling: 6000 feet AGL
Clouds: few clouds at 1000 feet AGL
scattered clouds at 3000 feet AGL
broken clouds at 6000 feet AGL
Weather: no significant weather observed at this time

METAR text: RCMQ 252200Z 00000KT 9999 FEW010 SCT030 BKN060 24/22 Q1006 NOSIG RMK A2972
Conditions at: RCMQ (WUCHIA OBSERVATO, TW) observed 2200 UTC 25 June 2019
Temperature: 24.0°C (75°F)
Dewpoint: 22.0°C (72°F) [RH = 89%]
Pressure (altimeter): 29.70 inches Hg (1006.0 mb)
Winds: calm
Visibility: 6 or more miles (10+ km)
Ceiling: 6000 feet AGL
Clouds: few clouds at 1000 feet AGL
scattered clouds at 3000 feet AGL
broken clouds at 6000 feet AGL
Weather: no significant weather observed at this time

METAR text: RCMQ 252130Z 19003KT 9999 FEW010 BKN060 24/22 Q1006 NOSIG RMK A2972
Conditions at: RCMQ (WUCHIA OBSERVATO, TW) observed 2130 UTC 25 June 2019
Temperature: 24.0°C (75°F)
Dewpoint: 22.0°C (72°F) [RH = 89%]
Pressure (altimeter): 29.70 inches Hg (1006.0 mb)
Winds: from the S (190 degrees) at 3 MPH (3 knots; 1.5 m/s)
Visibility: 6 or more miles (10+ km)
Ceiling: 6000 feet AGL
Clouds: few clouds at 1000 feet AGL
broken clouds at 6000 feet AGL
Weather: no significant weather observed at this time

METAR text: RCMQ 252100Z 19004KT 9999 FEW010 BKN060 24/22 Q1006 NOSIG RMK A2971
Conditions at: RCMQ (WUCHIA OBSERVATO, TW) observed 2100 UTC 25 June 2019
Temperature: 24.0°C (75°F)
Dewpoint: 22.0°C (72°F) [RH = 89%]
Pressure (altimeter): 29.70 inches Hg (1006.0 mb)
Winds: from the S (190 degrees) at 5 MPH (4 knots; 2.1 m/s)
Visibility: 6 or more miles (10+ km)
Ceiling: 6000 feet AGL
Clouds: few clouds at 1000 feet AGL
broken clouds at 6000 feet AGL
Weather: no significant weather observed at this time

METAR text: RCMQ 252030Z 20005KT 9999 FEW010 SCT050 23/21 Q1006 RMK A2971
Conditions at: RCMQ (WUCHIA OBSERVATO, TW) observed 2030 UTC 25 June 2019
Temperature: 23.0°C (73°F)
Dewpoint: 21.0°C (70°F) [RH = 89%]
Pressure (altimeter): 29.70 inches Hg (1006.0 mb)
Winds: from the SSW (200 degrees) at 6 MPH (5 knots; 2.6 m/s)
Visibility: 6 or more miles (10+ km)
Ceiling: at least 12,000 feet AGL
Clouds: few clouds at 1000 feet AGL
scattered clouds at 5000 feet AGL
Weather: no significant weather observed at this time

METAR text: RCMQ 252000Z 20003KT 9999 FEW010 SCT050 24/21 Q1006 RMK A2972
Conditions at: RCMQ (WUCHIA OBSERVATO, TW) observed 2000 UTC 25 June 2019
Temperature: 24.0°C (75°F)
Dewpoint: 21.0°C (70°F) [RH = 83%]
Pressure (altimeter): 29.70 inches Hg (1006.0 mb)
Winds: from the SSW (200 degrees) at 3 MPH (3 knots; 1.5 m/s)
Visibility: 6 or more miles (10+ km)
Ceiling: at least 12,000 feet AGL
Clouds: few clouds at 1000 feet AGL
scattered clouds at 5000 feet AGL
Weather: no significant weather observed at this time

METAR text: RCMQ 251900Z 21005KT 9999 FEW010 BKN050 24/22 Q1006 RMK A2972
Conditions at: RCMQ (WUCHIA OBSERVATO, TW) observed 1900 UTC 25 June 2019
Temperature: 24.0°C (75°F)
Dewpoint: 22.0°C (72°F) [RH = 89%]
Pressure (altimeter): 29.70 inches Hg (1006.0 mb)
Winds: from the SSW (210 degrees) at 6 MPH (5 knots; 2.6 m/s)
Visibility: 6 or more miles (10+ km)
Ceiling: 5000 feet AGL
Clouds: few clouds at 1000 feet AGL
broken clouds at 5000 feet AGL
Weather: no significant weather observed at this time

METAR text: RCMQ 251800Z 22003KT 9999 FEW010 BKN050 24/22 Q1006 RMK A2972
Conditions at: RCMQ (WUCHIA OBSERVATO, TW) observed 1800 UTC 25 June 2019
Temperature: 24.0°C (75°F)
Dewpoint: 22.0°C (72°F) [RH = 89%]
Pressure (altimeter): 29.70 inches Hg (1006.0 mb)
Winds: from the SW (220 degrees) at 3 MPH (3 knots; 1.5 m/s)
Visibility: 6 or more miles (10+ km)
Ceiling: 5000 feet AGL
Clouds: few clouds at 1000 feet AGL
broken clouds at 5000 feet AGL
Weather: no significant weather observed at this time

METAR text: RCMQ 251700Z 20006KT 9999 FEW010 BKN050 24/22 Q1007 RMK A2974
Conditions at: RCMQ (WUCHIA OBSERVATO, TW) observed 1700 UTC 25 June 2019
Temperature: 24.0°C (75°F)
Dewpoint: 22.0°C (72°F) [RH = 89%]
Pressure (altimeter): 29.73 inches Hg (1007.0 mb)
Winds: from the SSW (200 degrees) at 7 MPH (6 knots; 3.1 m/s)
Visibility: 6 or more miles (10+ km)
Ceiling: 5000 feet AGL
Clouds: few clouds at 1000 feet AGL
broken clouds at 5000 feet AGL
Weather: no significant weather observed at this time

METAR text: RCMQ 251600Z 19006KT 9999 FEW010 BKN050 25/22 Q1007 RMK A2976
Conditions at: RCMQ (WUCHIA OBSERVATO, TW) observed 1600 UTC 25 June 2019
Temperature: 25.0°C (77°F)
Dewpoint: 22.0°C (72°F) [RH = 83%]
Pressure (altimeter): 29.73 inches Hg (1007.0 mb)
Winds: from the S (190 degrees) at 7 MPH (6 knots; 3.1 m/s)
Visibility: 6 or more miles (10+ km)
Ceiling: 5000 feet AGL
Clouds: few clouds at 1000 feet AGL
broken clouds at 5000 feet AGL
Weather: no significant weather observed at this time

METAR text: RCMQ 251500Z 19007KT 9999 FEW010 BKN050 25/21 Q1008 RMK A2978
Conditions at: RCMQ (WUCHIA OBSERVATO, TW) observed 1500 UTC 25 June 2019
Temperature: 25.0°C (77°F)
Dewpoint: 21.0°C (70°F) [RH = 79%]
Pressure (altimeter): 29.76 inches Hg (1008.0 mb)
Winds: from the S (190 degrees) at 8 MPH (7 knots; 3.6 m/s)
Visibility: 6 or more miles (10+ km)
Ceiling: 5000 feet AGL
Clouds: few clouds at 1000 feet AGL
broken clouds at 5000 feet AGL
Weather: no significant weather observed at this time

METAR text: RCMQ 251408Z 19009KT 9999 VCSH FEW010 SCT030 BKN050 25/21 Q1008 NOSIG RMK A2979 VCSH S
Conditions at: RCMQ (WUCHIA OBSERVATO, TW) observed 1408 UTC 25 June 2019
Temperature: 25.0°C (77°F)
Dewpoint: 21.0°C (70°F) [RH = 79%]
Pressure (altimeter): 29.76 inches Hg (1008.0 mb)
Winds: from the S (190 degrees) at 10 MPH (9 knots; 4.6 m/s)
Visibility: 6 or more miles (10+ km)
Ceiling: 5000 feet AGL
Clouds: few clouds at 1000 feet AGL
scattered clouds at 3000 feet AGL
broken clouds at 5000 feet AGL
Weather: VCSH  (showers in vicinity)

METAR text: RCMQ 251400Z 19008KT 9999 -RA FEW008 SCT025 BKN050 25/21 Q1009 NOSIG RMK A2980
Conditions at: RCMQ (WUCHIA OBSERVATO, TW) observed 1400 UTC 25 June 2019
Temperature: 25.0°C (77°F)
Dewpoint: 21.0°C (70°F) [RH = 79%]
Pressure (altimeter): 29.79 inches Hg (1009.0 mb)
Winds: from the S (190 degrees) at 9 MPH (8 knots; 4.1 m/s)
Visibility: 6 or more miles (10+ km)
Ceiling: 5000 feet AGL
Clouds: few clouds at 800 feet AGL
scattered clouds at 2500 feet AGL
broken clouds at 5000 feet AGL
Weather: -RA  (light rain)

METAR text: RCMQ 251330Z 19011KT 9999 -RA FEW008 SCT025 BKN050 25/21 Q1008 NOSIG RMK A2979
Conditions at: RCMQ (WUCHIA OBSERVATO, TW) observed 1330 UTC 25 June 2019
Temperature: 25.0°C (77°F)
Dewpoint: 21.0°C (70°F) [RH = 79%]
Pressure (altimeter): 29.76 inches Hg (1008.0 mb)
Winds: from the S (190 degrees) at 13 MPH (11 knots; 5.7 m/s)
Visibility: 6 or more miles (10+ km)
Ceiling: 5000 feet AGL
Clouds: few clouds at 800 feet AGL
scattered clouds at 2500 feet AGL
broken clouds at 5000 feet AGL
Weather: -RA  (light rain)

METAR text: RCMQ 251300Z 20011KT 9999 -RA FEW008 SCT025 BKN050 26/22 Q1008 NOSIG RMK A2979
Conditions at: RCMQ (WUCHIA OBSERVATO, TW) observed 1300 UTC 25 June 2019
Temperature: 26.0°C (79°F)
Dewpoint: 22.0°C (72°F) [RH = 79%]
Pressure (altimeter): 29.76 inches Hg (1008.0 mb)
Winds: from the SSW (200 degrees) at 13 MPH (11 knots; 5.7 m/s)
Visibility: 6 or more miles (10+ km)
Ceiling: 5000 feet AGL
Clouds: few clouds at 800 feet AGL
scattered clouds at 2500 feet AGL
broken clouds at 5000 feet AGL
Weather: -RA  (light rain)

METAR text: RCMQ 251230Z 21003KT 9999 -RA FEW008 SCT025 BKN050 26/23 Q1009 NOSIG RMK A2981
Conditions at: RCMQ (WUCHIA OBSERVATO, TW) observed 1230 UTC 25 June 2019
Temperature: 26.0°C (79°F)
Dewpoint: 23.0°C (73°F) [RH = 84%]
Pressure (altimeter): 29.79 inches Hg (1009.0 mb)
Winds: from the SSW (210 degrees) at 3 MPH (3 knots; 1.5 m/s)
Visibility: 6 or more miles (10+ km)
Ceiling: 5000 feet AGL
Clouds: few clouds at 800 feet AGL
scattered clouds at 2500 feet AGL
broken clouds at 5000 feet AGL
Weather: -RA  (light rain)

METAR text: RCMQ 251200Z 19005KT 9999 -RA FEW008 BKN025 BKN050 26/22 Q1008 NOSIG RMK A2979
Conditions at: RCMQ (WUCHIA OBSERVATO, TW) observed 1200 UTC 25 June 2019
Temperature: 26.0°C (79°F)
Dewpoint: 22.0°C (72°F) [RH = 79%]
Pressure (altimeter): 29.76 inches Hg (1008.0 mb)
Winds: from the S (190 degrees) at 6 MPH (5 knots; 2.6 m/s)
Visibility: 6 or more miles (10+ km)
Ceiling: 2500 feet AGL
Clouds: few clouds at 800 feet AGL
broken clouds at 2500 feet AGL
broken clouds at 5000 feet AGL
Weather: -RA  (light rain)

METAR text: RCMQ 251130Z 20005KT 9999 -RA FEW006 BKN025 BKN050 26/23 Q1008 NOSIG RMK A2978
Conditions at: RCMQ (WUCHIA OBSERVATO, TW) observed 1130 UTC 25 June 2019
Temperature: 26.0°C (79°F)
Dewpoint: 23.0°C (73°F) [RH = 84%]
Pressure (altimeter): 29.76 inches Hg (1008.0 mb)
Winds: from the SSW (200 degrees) at 6 MPH (5 knots; 2.6 m/s)
Visibility: 6 or more miles (10+ km)
Ceiling: 2500 feet AGL
Clouds: few clouds at 600 feet AGL
broken clouds at 2500 feet AGL
broken clouds at 5000 feet AGL
Weather: -RA  (light rain)

METAR text: RCMQ 251100Z 19005KT 9999 -RA FEW006 BKN025 BKN050 26/23 Q1008 NOSIG RMK A2979
Conditions at: RCMQ (WUCHIA OBSERVATO, TW) observed 1100 UTC 25 June 2019
Temperature: 26.0°C (79°F)
Dewpoint: 23.0°C (73°F) [RH = 84%]
Pressure (altimeter): 29.76 inches Hg (1008.0 mb)
Winds: from the S (190 degrees) at 6 MPH (5 knots; 2.6 m/s)
Visibility: 6 or more miles (10+ km)
Ceiling: 2500 feet AGL
Clouds: few clouds at 600 feet AGL
broken clouds at 2500 feet AGL
broken clouds at 5000 feet AGL
Weather: -RA  (light rain)

METAR text: RCMQ 251030Z 20003KT 9999 -RA FEW006 BKN025 BKN050 26/23 Q1008 NOSIG RMK A2978
Conditions at: RCMQ (WUCHIA OBSERVATO, TW) observed 1030 UTC 25 June 2019
Temperature: 26.0°C (79°F)
Dewpoint: 23.0°C (73°F) [RH = 84%]
Pressure (altimeter): 29.76 inches Hg (1008.0 mb)
Winds: from the SSW (200 degrees) at 3 MPH (3 knots; 1.5 m/s)
Visibility: 6 or more miles (10+ km)
Ceiling: 2500 feet AGL
Clouds: few clouds at 600 feet AGL
broken clouds at 2500 feet AGL
broken clouds at 5000 feet AGL
Weather: -RA  (light rain)

METAR text: RCMQ 251021Z 20003KT 9999 -RA FEW006 BKN025 BKN050 26/23 Q1008 NOSIG RMK A2978
Conditions at: RCMQ (WUCHIA OBSERVATO, TW) observed 1021 UTC 25 June 2019
Temperature: 26.0°C (79°F)
Dewpoint: 23.0°C (73°F) [RH = 84%]
Pressure (altimeter): 29.76 inches Hg (1008.0 mb)
Winds: from the SSW (200 degrees) at 3 MPH (3 knots; 1.5 m/s)
Visibility: 6 or more miles (10+ km)
Ceiling: 2500 feet AGL
Clouds: few clouds at 600 feet AGL
broken clouds at 2500 feet AGL
broken clouds at 5000 feet AGL
Weather: -RA  (light rain)

METAR text: RCMQ 251000Z 23005KT 9999 VCSH FEW006 BKN025 BKN050 27/22 Q1008 NOSIG RMK A2978 VCSH W
Conditions at: RCMQ (WUCHIA OBSERVATO, TW) observed 1000 UTC 25 June 2019
Temperature: 27.0°C (81°F)
Dewpoint: 22.0°C (72°F) [RH = 74%]
Pressure (altimeter): 29.76 inches Hg (1008.0 mb)
Winds: from the SW (230 degrees) at 6 MPH (5 knots; 2.6 m/s)
Visibility: 6 or more miles (10+ km)
Ceiling: 2500 feet AGL
Clouds: few clouds at 600 feet AGL
broken clouds at 2500 feet AGL
broken clouds at 5000 feet AGL
Weather: VCSH  (showers in vicinity)

METAR text: RCMQ 250930Z 22005KT 9999 VCSH FEW006 BKN032 BKN050 28/22 Q1008 NOSIG RMK A2978 VCSH W
Conditions at: RCMQ (WUCHIA OBSERVATO, TW) observed 0930 UTC 25 June 2019
Temperature: 28.0°C (82°F)
Dewpoint: 22.0°C (72°F) [RH = 70%]
Pressure (altimeter): 29.76 inches Hg (1008.0 mb)
Winds: from the SW (220 degrees) at 6 MPH (5 knots; 2.6 m/s)
Visibility: 6 or more miles (10+ km)
Ceiling: 3200 feet AGL
Clouds: few clouds at 600 feet AGL
broken clouds at 3200 feet AGL
broken clouds at 5000 feet AGL
Weather: VCSH  (showers in vicinity)

METAR text: RCMQ 250900Z 24009KT 9999 VCSH FEW006 BKN032 BKN050 28/22 Q1008 NOSIG RMK A2979 VCSH W
Conditions at: RCMQ (WUCHIA OBSERVATO, TW) observed 0900 UTC 25 June 2019
Temperature: 28.0°C (82°F)
Dewpoint: 22.0°C (72°F) [RH = 70%]
Pressure (altimeter): 29.76 inches Hg (1008.0 mb)
Winds: from the WSW (240 degrees) at 10 MPH (9 knots; 4.6 m/s)
Visibility: 6 or more miles (10+ km)
Ceiling: 3200 feet AGL
Clouds: few clouds at 600 feet AGL
broken clouds at 3200 feet AGL
broken clouds at 5000 feet AGL
Weather: VCSH  (showers in vicinity)

METAR text: RCMQ 250830Z 23009KT 9000 VCSH FEW008 SCT025 BKN050 28/21 Q1008 NOSIG RMK A2978 VCSH W
Conditions at: RCMQ (WUCHIA OBSERVATO, TW) observed 0830 UTC 25 June 2019
Temperature: 28.0°C (82°F)
Dewpoint: 21.0°C (70°F) [RH = 66%]
Pressure (altimeter): 29.76 inches Hg (1008.0 mb)
Winds: from the SW (230 degrees) at 10 MPH (9 knots; 4.6 m/s)
Visibility: 6 miles ( 9 km)
Ceiling: 5000 feet AGL
Clouds: few clouds at 800 feet AGL
scattered clouds at 2500 feet AGL
broken clouds at 5000 feet AGL
Weather: VCSH  (showers in vicinity)

METAR text: RCMQ 250800Z 21009KT 9000 VCSH FEW006 SCT016 BKN050 28/22 Q1008 NOSIG RMK A2977 VCSH W
Conditions at: RCMQ (WUCHIA OBSERVATO, TW) observed 0800 UTC 25 June 2019
Temperature: 28.0°C (82°F)
Dewpoint: 22.0°C (72°F) [RH = 70%]
Pressure (altimeter): 29.76 inches Hg (1008.0 mb)
Winds: from the SSW (210 degrees) at 10 MPH (9 knots; 4.6 m/s)
Visibility: 6 miles ( 9 km)
Ceiling: 5000 feet AGL
Clouds: few clouds at 600 feet AGL
scattered clouds at 1600 feet AGL
broken clouds at 5000 feet AGL
Weather: VCSH  (showers in vicinity)

METAR text: RCMQ 250739Z 23012KT 9000 VCSH SCT006 SCT016 BKN050 28/22 Q1008 BECMG 23013KT RMK A2977 VCSH W RWY18
Conditions at: RCMQ (WUCHIA OBSERVATO, TW) observed 0739 UTC 25 June 2019
Temperature: 28.0°C (82°F)
Dewpoint: 22.0°C (72°F) [RH = 70%]
Pressure (altimeter): 29.76 inches Hg (1008.0 mb)
Winds: from the SW (230 degrees) at 14 MPH (12 knots; 6.2 m/s)
Visibility: 6 miles ( 9 km)
Ceiling: 5000 feet AGL
Clouds: scattered clouds at 600 feet AGL
scattered clouds at 1600 feet AGL
broken clouds at 5000 feet AGL
Weather: VCSH  (showers in vicinity)

METAR text: RCMQ 250730Z 23010KT 9000 VCSH SCT006 SCT016 BKN040 29/23 Q1008 NOSIG RMK A2977 VCSH W
Conditions at: RCMQ (WUCHIA OBSERVATO, TW) observed 0730 UTC 25 June 2019
Temperature: 29.0°C (84°F)
Dewpoint: 23.0°C (73°F) [RH = 70%]
Pressure (altimeter): 29.76 inches Hg (1008.0 mb)
Winds: from the SW (230 degrees) at 12 MPH (10 knots; 5.1 m/s)
Visibility: 6 miles ( 9 km)
Ceiling: 4000 feet AGL
Clouds: scattered clouds at 600 feet AGL
scattered clouds at 1600 feet AGL
broken clouds at 4000 feet AGL
Weather: VCSH  (showers in vicinity)

METAR text: RCMQ 250724Z 21009KT 9000 VCSH SCT006 SCT016 BKN040 29/22 Q1008 NOSIG RMK A2977 VCSH W
Conditions at: RCMQ (WUCHIA OBSERVATO, TW) observed 0724 UTC 25 June 2019
Temperature: 29.0°C (84°F)
Dewpoint: 22.0°C (72°F) [RH = 66%]
Pressure (altimeter): 29.76 inches Hg (1008.0 mb)
Winds: from the SSW (210 degrees) at 10 MPH (9 knots; 4.6 m/s)
Visibility: 6 miles ( 9 km)
Ceiling: 4000 feet AGL
Clouds: scattered clouds at 600 feet AGL
scattered clouds at 1600 feet AGL
broken clouds at 4000 feet AGL
Weather: VCSH  (showers in vicinity)

METAR text: RCMQ 250700Z 24007KT 9000 -RA SCT006 SCT016 BKN040 29/24 Q1008 NOSIG RMK A2977 RA AMT 0.5MM
Conditions at: RCMQ (WUCHIA OBSERVATO, TW) observed 0700 UTC 25 June 2019
Temperature: 29.0°C (84°F)
Dewpoint: 24.0°C (75°F) [RH = 74%]
Pressure (altimeter): 29.76 inches Hg (1008.0 mb)
Winds: from the WSW (240 degrees) at 8 MPH (7 knots; 3.6 m/s)
Visibility: 6 miles ( 9 km)
Ceiling: 4000 feet AGL
Clouds: scattered clouds at 600 feet AGL
scattered clouds at 1600 feet AGL
broken clouds at 4000 feet AGL
Weather: -RA  (light rain)

METAR text: RCMQ 250630Z 26006KT 7000 -RA SCT006 SCT016 BKN040 29/25 Q1007 NOSIG RMK A2976
Conditions at: RCMQ (WUCHIA OBSERVATO, TW) observed 0630 UTC 25 June 2019
Temperature: 29.0°C (84°F)
Dewpoint: 25.0°C (77°F) [RH = 79%]
Pressure (altimeter): 29.73 inches Hg (1007.0 mb)
Winds: from the W (260 degrees) at 7 MPH (6 knots; 3.1 m/s)
Visibility: 4 miles ( 7 km)
Ceiling: 4000 feet AGL
Clouds: scattered clouds at 600 feet AGL
scattered clouds at 1600 feet AGL
broken clouds at 4000 feet AGL
Weather: -RA  (light rain)

METAR text: RCMQ 250600Z 31006KT 7000 -RA SCT006 BKN016 BKN032 28/26 Q1007 BECMG 31006KT 5000 -RA BR RMK A2976 RWY36
Conditions at: RCMQ (WUCHIA OBSERVATO, TW) observed 0600 UTC 25 June 2019
Temperature: 28.0°C (82°F)
Dewpoint: 26.0°C (79°F) [RH = 89%]
Pressure (altimeter): 29.73 inches Hg (1007.0 mb)
Winds: from the NW (310 degrees) at 7 MPH (6 knots; 3.1 m/s)
Visibility: 4 miles ( 7 km)
Ceiling: 1600 feet AGL
Clouds: scattered clouds at 600 feet AGL
broken clouds at 1600 feet AGL
broken clouds at 3200 feet AGL
Weather: -RA  (light rain)

METAR text: RCMQ 250547Z 28005KT 9000 -RA SCT006 BKN016 BKN032 29/26 Q1007 NOSIG RMK A2976
Conditions at: RCMQ (WUCHIA OBSERVATO, TW) observed 0547 UTC 25 June 2019
Temperature: 29.0°C (84°F)
Dewpoint: 26.0°C (79°F) [RH = 84%]
Pressure (altimeter): 29.73 inches Hg (1007.0 mb)
Winds: from the W (280 degrees) at 6 MPH (5 knots; 2.6 m/s)
Visibility: 6 miles ( 9 km)
Ceiling: 1600 feet AGL
Clouds: scattered clouds at 600 feet AGL
broken clouds at 1600 feet AGL
broken clouds at 3200 feet AGL
Weather: -RA  (light rain)

METAR text: RCMQ 250530Z 31002KT 9999 FEW010 BKN021 BKN040 31/25 Q1007 NOSIG RMK A2976
Conditions at: RCMQ (WUCHIA OBSERVATO, TW) observed 0530 UTC 25 June 2019
Temperature: 31.0°C (88°F)
Dewpoint: 25.0°C (77°F) [RH = 71%]
Pressure (altimeter): 29.73 inches Hg (1007.0 mb)
Winds: from the NW (310 degrees) at 2 MPH (2 knots; 1.0 m/s)
Visibility: 6 or more miles (10+ km)
Ceiling: 2100 feet AGL
Clouds: few clouds at 1000 feet AGL
broken clouds at 2100 feet AGL
broken clouds at 4000 feet AGL
Weather: no significant weather observed at this time

METAR text: RCMQ 250500Z 32005KT 9999 FEW010 BKN021 BKN040 32/25 Q1008 NOSIG RMK A2977
Conditions at: RCMQ (WUCHIA OBSERVATO, TW) observed 0500 UTC 25 June 2019
Temperature: 32.0°C (90°F)
Dewpoint: 25.0°C (77°F) [RH = 67%]
Pressure (altimeter): 29.76 inches Hg (1008.0 mb)
Winds: from the NW (320 degrees) at 6 MPH (5 knots; 2.6 m/s)
Visibility: 6 or more miles (10+ km)
Ceiling: 2100 feet AGL
Clouds: few clouds at 1000 feet AGL
broken clouds at 2100 feet AGL
broken clouds at 4000 feet AGL
Weather: no significant weather observed at this time

METAR text: RCMQ 250430Z 31006KT 9999 FEW012 BKN025 BKN060 31/25 Q1008 NOSIG RMK A2977
Conditions at: RCMQ (WUCHIA OBSERVATO, TW) observed 0430 UTC 25 June 2019
Temperature: 31.0°C (88°F)
Dewpoint: 25.0°C (77°F) [RH = 71%]
Pressure (altimeter): 29.76 inches Hg (1008.0 mb)
Winds: from the NW (310 degrees) at 7 MPH (6 knots; 3.1 m/s)
Visibility: 6 or more miles (10+ km)
Ceiling: 2500 feet AGL
Clouds: few clouds at 1200 feet AGL
broken clouds at 2500 feet AGL
broken clouds at 6000 feet AGL
Weather: no significant weather observed at this time

METAR text: RCMQ 250400Z 25008KT 9999 FEW012 SCT025 BKN060 32/24 Q1008 NOSIG RMK A2978
Conditions at: RCMQ (WUCHIA OBSERVATO, TW) observed 0400 UTC 25 June 2019
Temperature: 32.0°C (90°F)
Dewpoint: 24.0°C (75°F) [RH = 63%]
Pressure (altimeter): 29.76 inches Hg (1008.0 mb)
Winds: from the WSW (250 degrees) at 9 MPH (8 knots; 4.1 m/s)
Visibility: 6 or more miles (10+ km)
Ceiling: 6000 feet AGL
Clouds: few clouds at 1200 feet AGL
scattered clouds at 2500 feet AGL
broken clouds at 6000 feet AGL
Weather: no significant weather observed at this time

METAR text: RCMQ 250330Z 22007KT 9999 FEW012 BKN050 BKN100 32/24 Q1008 NOSIG RMK A2979
Conditions at: RCMQ (WUCHIA OBSERVATO, TW) observed 0330 UTC 25 June 2019
Temperature: 32.0°C (90°F)
Dewpoint: 24.0°C (75°F) [RH = 63%]
Pressure (altimeter): 29.76 inches Hg (1008.0 mb)
Winds: from the SW (220 degrees) at 8 MPH (7 knots; 3.6 m/s)
Visibility: 6 or more miles (10+ km)
Ceiling: 5000 feet AGL
Clouds: few clouds at 1200 feet AGL
broken clouds at 5000 feet AGL
broken clouds at 10000 feet AGL
Weather: no significant weather observed at this time

METAR text: RCMQ 250300Z 20006KT 9999 FEW012 BKN060 BKN100 32/24 Q1009 NOSIG RMK A2980
Conditions at: RCMQ (WUCHIA OBSERVATO, TW) observed 0300 UTC 25 June 2019
Temperature: 32.0°C (90°F)
Dewpoint: 24.0°C (75°F) [RH = 63%]
Pressure (altimeter): 29.79 inches Hg (1009.0 mb)
Winds: from the SSW (200 degrees) at 7 MPH (6 knots; 3.1 m/s)
Visibility: 6 or more miles (10+ km)
Ceiling: 6000 feet AGL
Clouds: few clouds at 1200 feet AGL
broken clouds at 6000 feet AGL
broken clouds at 10000 feet AGL
Weather: no significant weather observed at this time

METAR text: RCMQ 250230Z 21006KT 9999 FEW012 BKN060 BKN100 32/23 Q1009 NOSIG RMK A2980
Conditions at: RCMQ (WUCHIA OBSERVATO, TW) observed 0230 UTC 25 June 2019
Temperature: 32.0°C (90°F)
Dewpoint: 23.0°C (73°F) [RH = 59%]
Pressure (altimeter): 29.79 inches Hg (1009.0 mb)
Winds: from the SSW (210 degrees) at 7 MPH (6 knots; 3.1 m/s)
Visibility: 6 or more miles (10+ km)
Ceiling: 6000 feet AGL
Clouds: few clouds at 1200 feet AGL
broken clouds at 6000 feet AGL
broken clouds at 10000 feet AGL
Weather: no significant weather observed at this time

METAR text: RCMQ 250200Z 22005KT 9999 FEW012 BKN060 BKN100 31/24 Q1009 NOSIG RMK A2981
Conditions at: RCMQ (WUCHIA OBSERVATO, TW) observed 0200 UTC 25 June 2019
Temperature: 31.0°C (88°F)
Dewpoint: 24.0°C (75°F) [RH = 66%]
Pressure (altimeter): 29.79 inches Hg (1009.0 mb)
Winds: from the SW (220 degrees) at 6 MPH (5 knots; 2.6 m/s)
Visibility: 6 or more miles (10+ km)
Ceiling: 6000 feet AGL
Clouds: few clouds at 1200 feet AGL
broken clouds at 6000 feet AGL
broken clouds at 10000 feet AGL
Weather: no significant weather observed at this time

METAR text: RCMQ 250130Z 20008KT 9999 FEW012 BKN060 BKN100 31/24 Q1009 NOSIG RMK A2981
Conditions at: RCMQ (WUCHIA OBSERVATO, TW) observed 0130 UTC 25 June 2019
Temperature: 31.0°C (88°F)
Dewpoint: 24.0°C (75°F) [RH = 66%]
Pressure (altimeter): 29.79 inches Hg (1009.0 mb)
Winds: from the SSW (200 degrees) at 9 MPH (8 knots; 4.1 m/s)
Visibility: 6 or more miles (10+ km)
Ceiling: 6000 feet AGL
Clouds: few clouds at 1200 feet AGL
broken clouds at 6000 feet AGL
broken clouds at 10000 feet AGL
Weather: no significant weather observed at this time

METAR text: RCMQ 250100Z 18008KT 9999 FEW012 BKN100 31/23 Q1009 NOSIG RMK A2981
Conditions at: RCMQ (WUCHIA OBSERVATO, TW) observed 0100 UTC 25 June 2019
Temperature: 31.0°C (88°F)
Dewpoint: 23.0°C (73°F) [RH = 63%]
Pressure (altimeter): 29.79 inches Hg (1009.0 mb)
Winds: from the S (180 degrees) at 9 MPH (8 knots; 4.1 m/s)
Visibility: 6 or more miles (10+ km)
Ceiling: 10000 feet AGL
Clouds: few clouds at 1200 feet AGL
broken clouds at 10000 feet AGL
Weather: no significant weather observed at this time

METAR text: RCMQ 250030Z 17006KT 9999 FEW012 BKN100 29/23 Q1009 NOSIG RMK A2982
Conditions at: RCMQ (WUCHIA OBSERVATO, TW) observed 0030 UTC 25 June 2019
Temperature: 29.0°C (84°F)
Dewpoint: 23.0°C (73°F) [RH = 70%]
Pressure (altimeter): 29.79 inches Hg (1009.0 mb)
Winds: from the S (170 degrees) at 7 MPH (6 knots; 3.1 m/s)
Visibility: 6 or more miles (10+ km)
Ceiling: 10000 feet AGL
Clouds: few clouds at 1200 feet AGL
broken clouds at 10000 feet AGL
Weather: no significant weather observed at this time

METAR text: RCMQ 250000Z 16003KT 9999 FEW012 SCT080 BKN200 29/23 Q1009 NOSIG RMK A2982
Conditions at: RCMQ (WUCHIA OBSERVATO, TW) observed 0000 UTC 25 June 2019
Temperature: 29.0°C (84°F)
Dewpoint: 23.0°C (73°F) [RH = 70%]
Pressure (altimeter): 29.79 inches Hg (1009.0 mb)
Winds: from the SSE (160 degrees) at 3 MPH (3 knots; 1.5 m/s)
Visibility: 6 or more miles (10+ km)
Ceiling: 20000 feet AGL
Clouds: few clouds at 1200 feet AGL
scattered clouds at 8000 feet AGL
broken clouds at 20000 feet AGL
Weather: no significant weather observed at this time

METAR text: RCMQ 242330Z 10001KT 9999 FEW012 SCT100 BKN200 27/22 Q1009 NOSIG RMK A2981
Conditions at: RCMQ (WUCHIA OBSERVATO, TW) observed 2330 UTC 24 June 2019
Temperature: 27.0°C (81°F)
Dewpoint: 22.0°C (72°F) [RH = 74%]
Pressure (altimeter): 29.79 inches Hg (1009.0 mb)
Winds: from the E (100 degrees) at 1 MPH (1 knots; 0.5 m/s)
Visibility: 6 or more miles (10+ km)
Ceiling: 20000 feet AGL
Clouds: few clouds at 1200 feet AGL
scattered clouds at 10000 feet AGL
broken clouds at 20000 feet AGL
Weather: no significant weather observed at this time

METAR text: RCMQ 242300Z 00000KT 9999 FEW012 SCT050 BKN100 26/22 Q1009 NOSIG RMK A2981
Conditions at: RCMQ (WUCHIA OBSERVATO, TW) observed 2300 UTC 24 June 2019
Temperature: 26.0°C (79°F)
Dewpoint: 22.0°C (72°F) [RH = 79%]
Pressure (altimeter): 29.79 inches Hg (1009.0 mb)
Winds: calm
Visibility: 6 or more miles (10+ km)
Ceiling: 10000 feet AGL
Clouds: few clouds at 1200 feet AGL
scattered clouds at 5000 feet AGL
broken clouds at 10000 feet AGL
Weather: no significant weather observed at this time

METAR text: RCMQ 242230Z 10001KT 9999 FEW012 SCT050 BKN100 26/22 Q1009 NOSIG RMK A2982
Conditions at: RCMQ (WUCHIA OBSERVATO, TW) observed 2230 UTC 24 June 2019
Temperature: 26.0°C (79°F)
Dewpoint: 22.0°C (72°F) [RH = 79%]
Pressure (altimeter): 29.79 inches Hg (1009.0 mb)
Winds: from the E (100 degrees) at 1 MPH (1 knots; 0.5 m/s)
Visibility: 6 or more miles (10+ km)
Ceiling: 10000 feet AGL
Clouds: few clouds at 1200 feet AGL
scattered clouds at 5000 feet AGL
broken clouds at 10000 feet AGL
Weather: no significant weather observed at this time

METAR text: RCMQ 242200Z 12002KT 9999 FEW012 BKN060 25/21 Q1009 NOSIG RMK A2982
Conditions at: RCMQ (WUCHIA OBSERVATO, TW) observed 2200 UTC 24 June 2019
Temperature: 25.0°C (77°F)
Dewpoint: 21.0°C (70°F) [RH = 79%]
Pressure (altimeter): 29.79 inches Hg (1009.0 mb)
Winds: from the ESE (120 degrees) at 2 MPH (2 knots; 1.0 m/s)
Visibility: 6 or more miles (10+ km)
Ceiling: 6000 feet AGL
Clouds: few clouds at 1200 feet AGL
broken clouds at 6000 feet AGL
Weather: no significant weather observed at this time

METAR text: RCMQ 242130Z 12002KT 9999 FEW012 BKN060 24/21 Q1009 NOSIG RMK A2981
Conditions at: RCMQ (WUCHIA OBSERVATO, TW) observed 2130 UTC 24 June 2019
Temperature: 24.0°C (75°F)
Dewpoint: 21.0°C (70°F) [RH = 83%]
Pressure (altimeter): 29.79 inches Hg (1009.0 mb)
Winds: from the ESE (120 degrees) at 2 MPH (2 knots; 1.0 m/s)
Visibility: 6 or more miles (10+ km)
Ceiling: 6000 feet AGL
Clouds: few clouds at 1200 feet AGL
broken clouds at 6000 feet AGL
Weather: no significant weather observed at this time

METAR text: RCMQ 242100Z 00000KT 9999 FEW012 BKN060 24/21 Q1009 NOSIG RMK A2980
Conditions at: RCMQ (WUCHIA OBSERVATO, TW) observed 2100 UTC 24 June 2019
Temperature: 24.0°C (75°F)
Dewpoint: 21.0°C (70°F) [RH = 83%]
Pressure (altimeter): 29.79 inches Hg (1009.0 mb)
Winds: calm
Visibility: 6 or more miles (10+ km)
Ceiling: 6000 feet AGL
Clouds: few clouds at 1200 feet AGL
broken clouds at 6000 feet AGL
Weather: no significant weather observed at this time

METAR text: RCMQ 242030Z 00000KT 9999 FEW012 BKN060 24/21 Q1008 RMK A2979
Conditions at: RCMQ (WUCHIA OBSERVATO, TW) observed 2030 UTC 24 June 2019
Temperature: 24.0°C (75°F)
Dewpoint: 21.0°C (70°F) [RH = 83%]
Pressure (altimeter): 29.76 inches Hg (1008.0 mb)
Winds: calm
Visibility: 6 or more miles (10+ km)
Ceiling: 6000 feet AGL
Clouds: few clouds at 1200 feet AGL
broken clouds at 6000 feet AGL
Weather: no significant weather observed at this time

METAR text: RCMQ 242000Z 00000KT 9999 FEW012 BKN060 24/22 Q1008 RMK A2978
Conditions at: RCMQ (WUCHIA OBSERVATO, TW) observed 2000 UTC 24 June 2019
Temperature: 24.0°C (75°F)
Dewpoint: 22.0°C (72°F) [RH = 89%]
Pressure (altimeter): 29.76 inches Hg (1008.0 mb)
Winds: calm
Visibility: 6 or more miles (10+ km)
Ceiling: 6000 feet AGL
Clouds: few clouds at 1200 feet AGL
broken clouds at 6000 feet AGL
Weather: no significant weather observed at this time

METAR text: RCMQ 241900Z 00000KT 9999 FEW012 BKN060 24/22 Q1008 RMK A2978
Conditions at: RCMQ (WUCHIA OBSERVATO, TW) observed 1900 UTC 24 June 2019
Temperature: 24.0°C (75°F)
Dewpoint: 22.0°C (72°F) [RH = 89%]
Pressure (altimeter): 29.76 inches Hg (1008.0 mb)
Winds: calm
Visibility: 6 or more miles (10+ km)
Ceiling: 6000 feet AGL
Clouds: few clouds at 1200 feet AGL
broken clouds at 6000 feet AGL
Weather: no significant weather observed at this time

METAR text: RCMQ 241800Z 00000KT 9999 FEW012 BKN060 24/22 Q1008 RMK A2979
Conditions at: RCMQ (WUCHIA OBSERVATO, TW) observed 1800 UTC 24 June 2019
Temperature: 24.0°C (75°F)
Dewpoint: 22.0°C (72°F) [RH = 89%]
Pressure (altimeter): 29.76 inches Hg (1008.0 mb)
Winds: calm
Visibility: 6 or more miles (10+ km)
Ceiling: 6000 feet AGL
Clouds: few clouds at 1200 feet AGL
broken clouds at 6000 feet AGL
Weather: no significant weather observed at this time

METAR text: RCMQ 241700Z 14002KT 9999 FEW012 BKN060 24/22 Q1009 RMK A2982
Conditions at: RCMQ (WUCHIA OBSERVATO, TW) observed 1700 UTC 24 June 2019
Temperature: 24.0°C (75°F)
Dewpoint: 22.0°C (72°F) [RH = 89%]
Pressure (altimeter): 29.79 inches Hg (1009.0 mb)
Winds: from the SE (140 degrees) at 2 MPH (2 knots; 1.0 m/s)
Visibility: 6 or more miles (10+ km)
Ceiling: 6000 feet AGL
Clouds: few clouds at 1200 feet AGL
broken clouds at 6000 feet AGL
Weather: no significant weather observed at this time

Forecast for: RCMQ (WUCHIA OBSERVATO, TW)
Text: TAF RCMQ 252300Z 2600/2624 18004KT 8000 -RA FEW010 BKN025 BKN040 TX32/2606Z TN23/2621Z
Forecast period: 0000 to 0100 UTC 26 June 2019
Forecast type: FROM: standard forecast or significant change
Winds: from the S (180 degrees) at 5 MPH (4 knots; 2.1 m/s)
Visibility: 5 miles (8 km)
Ceiling: 2500 feet AGL
Clouds: few clouds at 1000 feet AGL
broken clouds at 2500 feet AGL
broken clouds at 4000 feet AGL
Weather: -RA  (light rain)
Text: BECMG 2601/2604 18006KT 9999 FEW010 SCT025 BKN060
Forecast period: 0100 to 1100 UTC 26 June 2019
Forecast type: BECOMING: Conditions expected to become as follows by 0400 UTC 26 June 2019
Winds: from the S (180 degrees) at 7 MPH (6 knots; 3.1 m/s)
Visibility: 6 or more miles 10+ km)
Ceiling: 6000 feet AGL
Clouds: few clouds at 1000 feet AGL
scattered clouds at 2500 feet AGL
broken clouds at 6000 feet AGL
Weather: -RA  (light rain)
Text: TEMPO 2605/2610 7000 -RA FEW008 BKN016 BKN030
Forecast period: 0500 to 1000 UTC 26 June 2019
Forecast type: TEMPORARY: The following changes expected for less than half the time period
Visibility: 4 miles (7 km)
Ceiling: 1600 feet AGL
Clouds: few clouds at 800 feet AGL
broken clouds at 1600 feet AGL
broken clouds at 3000 feet AGL
Weather: -RA  (light rain)
Text: BECMG 2611/2614 18004KT
Forecast period: 1100 UTC 26 June 2019 to 0000 UTC 27 June 2019
Forecast type: BECOMING: Conditions expected to become as follows by 1400 UTC 26 June 2019
Winds: from the S (180 degrees) at 5 MPH (4 knots; 2.1 m/s)
Visibility: 6 or more miles 10+ km)
Ceiling: 6000 feet AGL
Clouds: few clouds at 1000 feet AGL
scattered clouds at 2500 feet AGL
broken clouds at 6000 feet AGL
Weather: -RA  (light rain)